sensor_id;sensor_type;location;lat;lon;timestamp;temperature;humidity
56729;DHT22;42612;52.232;7.560;2023-04-03T00:01:01;11.40;49.40
56729;DHT22;42612;52.232;7.560;2023-04-03T00:03:27;11.40;49.20
56729;DHT22;42612;52.232;7.560;2023-04-03T00:05:53;11.40;49.20
56729;DHT22;42612;52.232;7.560;2023-04-03T00:08:19;11.30;49.20
56729;DHT22;42612;52.232;7.560;2023-04-03T00:10:45;11.40;49.20
56729;DHT22;42612;52.232;7.560;2023-04-03T00:13:10;11.30;49.30
56729;DHT22;42612;52.232;7.560;2023-04-03T00:15:36;11.30;49.50
56729;DHT22;42612;52.232;7.560;2023-04-03T00:18:03;11.30;49.20
56729;DHT22;42612;52.232;7.560;2023-04-03T00:20:29;11.20;49.30
56729;DHT22;42612;52.232;7.560;2023-04-03T00:22:55;11.20;49.70
56729;DHT22;42612;52.232;7.560;2023-04-03T00:25:21;11.20;49.70
56729;DHT22;42612;52.232;7.560;2023-04-03T00:27:47;11.20;49.60
56729;DHT22;42612;52.232;7.560;2023-04-03T00:30:17;11.20;49.50
56729;DHT22;42612;52.232;7.560;2023-04-03T00:32:44;11.20;50.70
56729;DHT22;42612;52.232;7.560;2023-04-03T00:35:10;11.10;49.60
56729;DHT22;42612;52.232;7.560;2023-04-03T00:37:36;11.10;49.60
56729;DHT22;42612;52.232;7.560;2023-04-03T00:40:04;11.10;49.30
56729;DHT22;42612;52.232;7.560;2023-04-03T00:42:31;11.00;49.20
56729;DHT22;42612;52.232;7.560;2023-04-03T00:47:23;11.00;49.30
56729;DHT22;42612;52.232;7.560;2023-04-03T00:49:50;11.00;49.50
56729;DHT22;42612;52.232;7.560;2023-04-03T00:52:17;11.00;49.50
56729;DHT22;42612;52.232;7.560;2023-04-03T00:54:46;11.00;49.70
56729;DHT22;42612;52.232;7.560;2023-04-03T00:57:14;10.90;49.60
56729;DHT22;42612;52.232;7.560;2023-04-03T00:59:44;10.90;49.50
56729;DHT22;42612;52.232;7.560;2023-04-03T01:02:13;10.90;49.40
56729;DHT22;42612;52.232;7.560;2023-04-03T01:04:41;10.90;49.40
56729;DHT22;42612;52.232;7.560;2023-04-03T01:07:15;10.90;49.40
56729;DHT22;42612;52.232;7.560;2023-04-03T01:09:43;10.90;49.20
56729;DHT22;42612;52.232;7.560;2023-04-03T01:12:24;10.90;49.20
56729;DHT22;42612;52.232;7.560;2023-04-03T01:14:56;10.80;49.10
56729;DHT22;42612;52.232;7.560;2023-04-03T01:17:31;10.80;48.80
56729;DHT22;42612;52.232;7.560;2023-04-03T01:25:47;10.70;48.50
56729;DHT22;42612;52.232;7.560;2023-04-03T01:28:21;10.70;48.40
56729;DHT22;42612;52.232;7.560;2023-04-03T01:31:12;10.60;48.60
56729;DHT22;42612;52.232;7.560;2023-04-03T01:33:38;10.60;48.60
56729;DHT22;42612;52.232;7.560;2023-04-03T01:36:05;10.60;48.60
56729;DHT22;42612;52.232;7.560;2023-04-03T01:38:31;10.50;49.00
56729;DHT22;42612;52.232;7.560;2023-04-03T01:40:57;10.50;48.80
56729;DHT22;42612;52.232;7.560;2023-04-03T01:43:22;10.50;48.90
56729;DHT22;42612;52.232;7.560;2023-04-03T01:45:48;10.50;48.80
56729;DHT22;42612;52.232;7.560;2023-04-03T01:48:18;10.40;48.70
56729;DHT22;42612;52.232;7.560;2023-04-03T01:50:43;10.50;48.90
56729;DHT22;42612;52.232;7.560;2023-04-03T01:53:09;10.40;48.80
56729;DHT22;42612;52.232;7.560;2023-04-03T01:55:35;10.40;48.90
56729;DHT22;42612;52.232;7.560;2023-04-03T01:58:00;10.40;49.10
56729;DHT22;42612;52.232;7.560;2023-04-03T02:00:26;10.40;48.90
56729;DHT22;42612;52.232;7.560;2023-04-03T02:02:52;10.40;48.70
56729;DHT22;42612;52.232;7.560;2023-04-03T02:05:18;10.40;48.60
56729;DHT22;42612;52.232;7.560;2023-04-03T02:07:44;10.40;48.50
56729;DHT22;42612;52.232;7.560;2023-04-03T02:10:10;10.30;48.50
56729;DHT22;42612;52.232;7.560;2023-04-03T02:12:36;10.30;48.40
56729;DHT22;42612;52.232;7.560;2023-04-03T02:15:02;10.30;48.40
56729;DHT22;42612;52.232;7.560;2023-04-03T02:17:28;10.30;48.40
56729;DHT22;42612;52.232;7.560;2023-04-03T02:19:54;10.30;49.00
56729;DHT22;42612;52.232;7.560;2023-04-03T02:22:19;10.20;48.90
56729;DHT22;42612;52.232;7.560;2023-04-03T02:24:45;10.20;48.50
56729;DHT22;42612;52.232;7.560;2023-04-03T02:27:11;10.20;49.00
56729;DHT22;42612;52.232;7.560;2023-04-03T02:29:37;10.20;48.70
56729;DHT22;42612;52.232;7.560;2023-04-03T02:32:03;10.20;48.90
56729;DHT22;42612;52.232;7.560;2023-04-03T02:34:28;10.20;48.70
56729;DHT22;42612;52.232;7.560;2023-04-03T02:36:54;10.10;48.70
56729;DHT22;42612;52.232;7.560;2023-04-03T02:39:20;10.10;49.10
56729;DHT22;42612;52.232;7.560;2023-04-03T02:41:46;10.10;48.90
56729;DHT22;42612;52.232;7.560;2023-04-03T02:44:12;10.10;49.30
56729;DHT22;42612;52.232;7.560;2023-04-03T02:46:38;10.10;49.20
56729;DHT22;42612;52.232;7.560;2023-04-03T02:49:04;10.10;49.60
56729;DHT22;42612;52.232;7.560;2023-04-03T02:51:30;10.10;50.10
56729;DHT22;42612;52.232;7.560;2023-04-03T02:53:55;10.10;49.40
56729;DHT22;42612;52.232;7.560;2023-04-03T02:56:21;10.10;49.10
56729;DHT22;42612;52.232;7.560;2023-04-03T02:58:47;10.10;49.10
56729;DHT22;42612;52.232;7.560;2023-04-03T03:01:13;10.00;49.30
56729;DHT22;42612;52.232;7.560;2023-04-03T03:03:40;10.00;49.50
56729;DHT22;42612;52.232;7.560;2023-04-03T03:06:16;10.00;49.10
56729;DHT22;42612;52.232;7.560;2023-04-03T03:08:42;10.00;48.90
56729;DHT22;42612;52.232;7.560;2023-04-03T03:11:09;9.90;48.90
56729;DHT22;42612;52.232;7.560;2023-04-03T03:13:35;9.90;48.70
56729;DHT22;42612;52.232;7.560;2023-04-03T03:16:01;9.90;48.80
56729;DHT22;42612;52.232;7.560;2023-04-03T03:18:27;9.90;48.90
56729;DHT22;42612;52.232;7.560;2023-04-03T03:20:55;9.80;48.90
56729;DHT22;42612;52.232;7.560;2023-04-03T03:23:24;9.80;48.90
56729;DHT22;42612;52.232;7.560;2023-04-03T03:25:59;9.80;48.90
56729;DHT22;42612;52.232;7.560;2023-04-03T03:28:27;9.80;49.00
56729;DHT22;42612;52.232;7.560;2023-04-03T03:30:53;9.70;48.90
56729;DHT22;42612;52.232;7.560;2023-04-03T03:33:19;9.70;48.80
56729;DHT22;42612;52.232;7.560;2023-04-03T03:35:44;9.70;48.60
56729;DHT22;42612;52.232;7.560;2023-04-03T03:38:11;9.70;48.90
56729;DHT22;42612;52.232;7.560;2023-04-03T03:40:37;9.70;49.10
56729;DHT22;42612;52.232;7.560;2023-04-03T03:43:02;9.60;48.90
56729;DHT22;42612;52.232;7.560;2023-04-03T03:45:28;9.60;48.90
56729;DHT22;42612;52.232;7.560;2023-04-03T03:47:54;9.60;48.60
56729;DHT22;42612;52.232;7.560;2023-04-03T03:50:19;9.60;48.70
56729;DHT22;42612;52.232;7.560;2023-04-03T03:52:45;9.60;49.50
56729;DHT22;42612;52.232;7.560;2023-04-03T03:55:11;9.60;49.10
56729;DHT22;42612;52.232;7.560;2023-04-03T03:57:37;9.50;48.90
56729;DHT22;42612;52.232;7.560;2023-04-03T04:00:03;9.50;48.80
56729;DHT22;42612;52.232;7.560;2023-04-03T04:02:30;9.50;48.60
56729;DHT22;42612;52.232;7.560;2023-04-03T04:04:55;9.50;48.60
56729;DHT22;42612;52.232;7.560;2023-04-03T04:07:21;9.40;48.70
56729;DHT22;42612;52.232;7.560;2023-04-03T04:09:47;9.40;49.00
56729;DHT22;42612;52.232;7.560;2023-04-03T04:12:13;9.30;48.90
56729;DHT22;42612;52.232;7.560;2023-04-03T04:14:38;9.30;49.00
56729;DHT22;42612;52.232;7.560;2023-04-03T04:17:04;9.40;49.30
56729;DHT22;42612;52.232;7.560;2023-04-03T04:19:30;9.30;49.30
56729;DHT22;42612;52.232;7.560;2023-04-03T04:21:56;9.30;49.10
56729;DHT22;42612;52.232;7.560;2023-04-03T04:24:21;9.30;49.30
56729;DHT22;42612;52.232;7.560;2023-04-03T04:26:50;9.30;49.20
56729;DHT22;42612;52.232;7.560;2023-04-03T04:29:16;9.30;49.30
56729;DHT22;42612;52.232;7.560;2023-04-03T04:31:41;9.30;49.20
56729;DHT22;42612;52.232;7.560;2023-04-03T04:34:07;9.30;49.10
56729;DHT22;42612;52.232;7.560;2023-04-03T04:36:33;9.30;49.10
56729;DHT22;42612;52.232;7.560;2023-04-03T04:38:59;9.30;49.10
56729;DHT22;42612;52.232;7.560;2023-04-03T04:41:24;9.20;49.20
56729;DHT22;42612;52.232;7.560;2023-04-03T04:43:51;9.20;49.20
56729;DHT22;42612;52.232;7.560;2023-04-03T04:46:17;9.20;48.90
56729;DHT22;42612;52.232;7.560;2023-04-03T04:48:43;9.20;48.70
56729;DHT22;42612;52.232;7.560;2023-04-03T04:51:10;9.20;48.60
56729;DHT22;42612;52.232;7.560;2023-04-03T04:53:36;9.10;48.50
56729;DHT22;42612;52.232;7.560;2023-04-03T04:56:02;9.10;48.50
56729;DHT22;42612;52.232;7.560;2023-04-03T04:58:28;9.10;49.00
56729;DHT22;42612;52.232;7.560;2023-04-03T05:01:05;9.10;49.40
56729;DHT22;42612;52.232;7.560;2023-04-03T05:03:32;9.00;49.10
56729;DHT22;42612;52.232;7.560;2023-04-03T05:05:58;9.00;49.20
56729;DHT22;42612;52.232;7.560;2023-04-03T05:08:25;9.00;49.00
56729;DHT22;42612;52.232;7.560;2023-04-03T05:10:51;9.00;49.00
56729;DHT22;42612;52.232;7.560;2023-04-03T05:13:18;9.00;49.00
56729;DHT22;42612;52.232;7.560;2023-04-03T05:15:45;9.00;49.50
56729;DHT22;42612;52.232;7.560;2023-04-03T05:18:11;9.00;49.40
56729;DHT22;42612;52.232;7.560;2023-04-03T05:20:38;9.00;49.40
56729;DHT22;42612;52.232;7.560;2023-04-03T05:23:04;8.90;49.40
56729;DHT22;42612;52.232;7.560;2023-04-03T05:25:31;8.90;49.20
56729;DHT22;42612;52.232;7.560;2023-04-03T05:27:56;8.90;49.60
56729;DHT22;42612;52.232;7.560;2023-04-03T05:30:22;8.90;49.50
56729;DHT22;42612;52.232;7.560;2023-04-03T05:32:48;9.00;49.30
56729;DHT22;42612;52.232;7.560;2023-04-03T05:35:14;9.00;49.20
56729;DHT22;42612;52.232;7.560;2023-04-03T05:37:40;9.00;49.10
56729;DHT22;42612;52.232;7.560;2023-04-03T05:40:07;9.00;49.30
56729;DHT22;42612;52.232;7.560;2023-04-03T05:42:33;9.00;49.40
56729;DHT22;42612;52.232;7.560;2023-04-03T05:44:59;8.90;49.30
56729;DHT22;42612;52.232;7.560;2023-04-03T05:47:25;9.00;49.20
56729;DHT22;42612;52.232;7.560;2023-04-03T05:49:51;8.90;49.00
56729;DHT22;42612;52.232;7.560;2023-04-03T05:52:28;8.90;48.90
56729;DHT22;42612;52.232;7.560;2023-04-03T05:54:55;8.90;49.10
56729;DHT22;42612;52.232;7.560;2023-04-03T05:57:22;9.00;49.10
56729;DHT22;42612;52.232;7.560;2023-04-03T05:59:48;8.90;48.90
56729;DHT22;42612;52.232;7.560;2023-04-03T06:02:17;9.00;49.20
56729;DHT22;42612;52.232;7.560;2023-04-03T06:04:47;9.00;49.20
56729;DHT22;42612;52.232;7.560;2023-04-03T06:07:15;9.00;49.20
56729;DHT22;42612;52.232;7.560;2023-04-03T06:09:43;9.00;49.20
56729;DHT22;42612;52.232;7.560;2023-04-03T06:12:09;9.00;49.50
56729;DHT22;42612;52.232;7.560;2023-04-03T06:14:36;9.00;49.40
56729;DHT22;42612;52.232;7.560;2023-04-03T06:17:01;9.00;49.50
56729;DHT22;42612;52.232;7.560;2023-04-03T06:19:27;9.00;49.50
56729;DHT22;42612;52.232;7.560;2023-04-03T06:21:53;9.00;49.20
56729;DHT22;42612;52.232;7.560;2023-04-03T06:24:19;9.00;49.40
56729;DHT22;42612;52.232;7.560;2023-04-03T06:26:47;9.00;49.20
56729;DHT22;42612;52.232;7.560;2023-04-03T06:29:14;9.00;49.20
56729;DHT22;42612;52.232;7.560;2023-04-03T06:31:39;9.00;49.20
56729;DHT22;42612;52.232;7.560;2023-04-03T06:34:05;9.00;49.20
56729;DHT22;42612;52.232;7.560;2023-04-03T06:36:33;9.00;49.20
56729;DHT22;42612;52.232;7.560;2023-04-03T06:39:00;9.00;48.90
56729;DHT22;42612;52.232;7.560;2023-04-03T06:41:26;9.10;48.90
56729;DHT22;42612;52.232;7.560;2023-04-03T06:43:52;9.10;49.10
56729;DHT22;42612;52.232;7.560;2023-04-03T06:46:20;9.10;49.10
56729;DHT22;42612;52.232;7.560;2023-04-03T06:48:48;9.10;49.30
56729;DHT22;42612;52.232;7.560;2023-04-03T06:51:25;9.10;49.10
56729;DHT22;42612;52.232;7.560;2023-04-03T06:53:53;9.10;49.60
56729;DHT22;42612;52.232;7.560;2023-04-03T06:56:20;9.10;49.30
56729;DHT22;42612;52.232;7.560;2023-04-03T06:58:46;9.20;49.30
56729;DHT22;42612;52.232;7.560;2023-04-03T07:01:14;9.20;49.10
56729;DHT22;42612;52.232;7.560;2023-04-03T07:03:41;9.10;49.10
56729;DHT22;42612;52.232;7.560;2023-04-03T07:06:10;9.20;49.20
56729;DHT22;42612;52.232;7.560;2023-04-03T07:08:37;9.20;49.90
56729;DHT22;42612;52.232;7.560;2023-04-03T07:11:04;9.20;49.00
56729;DHT22;42612;52.232;7.560;2023-04-03T07:13:30;9.20;48.90
56729;DHT22;42612;52.232;7.560;2023-04-03T07:15:56;9.30;48.90
56729;DHT22;42612;52.232;7.560;2023-04-03T07:18:22;9.20;49.10
56729;DHT22;42612;52.232;7.560;2023-04-03T07:20:49;9.20;49.10
56729;DHT22;42612;52.232;7.560;2023-04-03T07:23:15;9.30;49.10
56729;DHT22;42612;52.232;7.560;2023-04-03T07:25:49;9.30;49.20
56729;DHT22;42612;52.232;7.560;2023-04-03T07:28:17;9.30;49.50
56729;DHT22;42612;52.232;7.560;2023-04-03T07:30:48;9.40;49.30
56729;DHT22;42612;52.232;7.560;2023-04-03T07:33:36;9.40;50.10
56729;DHT22;42612;52.232;7.560;2023-04-03T07:36:03;9.40;49.90
56729;DHT22;42612;52.232;7.560;2023-04-03T07:38:30;9.40;49.70
56729;DHT22;42612;52.232;7.560;2023-04-03T07:40:55;9.50;49.60
56729;DHT22;42612;52.232;7.560;2023-04-03T07:43:22;9.50;49.70
56729;DHT22;42612;52.232;7.560;2023-04-03T07:45:50;9.50;49.10
56729;DHT22;42612;52.232;7.560;2023-04-03T07:48:18;9.60;49.20
56729;DHT22;42612;52.232;7.560;2023-04-03T07:50:45;9.60;48.80
56729;DHT22;42612;52.232;7.560;2023-04-03T07:53:10;9.70;49.10
56729;DHT22;42612;52.232;7.560;2023-04-03T07:55:36;9.70;48.30
56729;DHT22;42612;52.232;7.560;2023-04-03T07:58:09;9.70;48.50
56729;DHT22;42612;52.232;7.560;2023-04-03T08:00:36;9.70;48.70
56729;DHT22;42612;52.232;7.560;2023-04-03T08:03:03;9.70;49.10
56729;DHT22;42612;52.232;7.560;2023-04-03T08:05:28;9.80;49.10
56729;DHT22;42612;52.232;7.560;2023-04-03T08:07:54;9.80;48.50
56729;DHT22;42612;52.232;7.560;2023-04-03T08:10:20;9.90;47.80
56729;DHT22;42612;52.232;7.560;2023-04-03T08:12:47;9.90;47.70
56729;DHT22;42612;52.232;7.560;2023-04-03T08:15:13;9.90;47.50
56729;DHT22;42612;52.232;7.560;2023-04-03T08:17:39;9.90;47.80
56729;DHT22;42612;52.232;7.560;2023-04-03T08:20:06;10.00;47.80
56729;DHT22;42612;52.232;7.560;2023-04-03T08:22:33;10.00;47.90
56729;DHT22;42612;52.232;7.560;2023-04-03T08:24:59;10.10;47.50
56729;DHT22;42612;52.232;7.560;2023-04-03T08:27:25;10.10;46.80
56729;DHT22;42612;52.232;7.560;2023-04-03T08:29:52;10.10;46.40
56729;DHT22;42612;52.232;7.560;2023-04-03T08:32:17;10.10;46.30
56729;DHT22;42612;52.232;7.560;2023-04-03T08:34:43;10.20;46.20
56729;DHT22;42612;52.232;7.560;2023-04-03T08:37:09;10.20;46.00
56729;DHT22;42612;52.232;7.560;2023-04-03T08:39:35;10.30;46.00
56729;DHT22;42612;52.232;7.560;2023-04-03T08:42:07;10.30;45.90
56729;DHT22;42612;52.232;7.560;2023-04-03T08:44:54;10.30;46.10
56729;DHT22;42612;52.232;7.560;2023-04-03T08:50:17;10.50;45.60
56729;DHT22;42612;52.232;7.560;2023-04-03T08:52:56;10.50;45.60
56729;DHT22;42612;52.232;7.560;2023-04-03T08:55:31;10.60;45.70
56729;DHT22;42612;52.232;7.560;2023-04-03T09:00:27;10.60;45.70
56729;DHT22;42612;52.232;7.560;2023-04-03T09:02:56;10.70;45.40
56729;DHT22;42612;52.232;7.560;2023-04-03T09:05:39;10.70;46.60
56729;DHT22;42612;52.232;7.560;2023-04-03T09:11:13;10.90;45.30
56729;DHT22;42612;52.232;7.560;2023-04-03T09:14:03;11.00;46.10
56729;DHT22;42612;52.232;7.560;2023-04-03T09:16:55;11.10;45.60
56729;DHT22;42612;52.232;7.560;2023-04-03T09:19:31;11.10;45.80
56729;DHT22;42612;52.232;7.560;2023-04-03T09:22:18;11.30;45.50
56729;DHT22;42612;52.232;7.560;2023-04-03T09:27:39;11.30;44.10
56729;DHT22;42612;52.232;7.560;2023-04-03T09:30:05;11.40;44.60
56729;DHT22;42612;52.232;7.560;2023-04-03T09:32:36;11.50;44.10
56729;DHT22;42612;52.232;7.560;2023-04-03T09:35:10;11.50;43.20
56729;DHT22;42612;52.232;7.560;2023-04-03T09:37:45;11.60;43.50
56729;DHT22;42612;52.232;7.560;2023-04-03T09:42:55;11.70;42.50
56729;DHT22;42612;52.232;7.560;2023-04-03T09:45:33;11.70;43.60
56729;DHT22;42612;52.232;7.560;2023-04-03T09:48:17;11.80;42.70
56729;DHT22;42612;52.232;7.560;2023-04-03T09:53:33;11.90;43.30
56729;DHT22;42612;52.232;7.560;2023-04-03T09:59:08;12.10;42.00
56729;DHT22;42612;52.232;7.560;2023-04-03T10:01:43;12.20;42.30
56729;DHT22;42612;52.232;7.560;2023-04-03T10:04:25;12.30;43.20
56729;DHT22;42612;52.232;7.560;2023-04-03T10:07:02;12.30;43.30
56729;DHT22;42612;52.232;7.560;2023-04-03T10:09:30;12.40;43.40
56729;DHT22;42612;52.232;7.560;2023-04-03T10:12:12;12.50;43.10
56729;DHT22;42612;52.232;7.560;2023-04-03T10:14:59;12.60;43.40
56729;DHT22;42612;52.232;7.560;2023-04-03T10:17:51;12.70;43.50
56729;DHT22;42612;52.232;7.560;2023-04-03T10:20:33;12.80;43.40
56729;DHT22;42612;52.232;7.560;2023-04-03T10:23:18;12.90;43.50
56729;DHT22;42612;52.232;7.560;2023-04-03T10:26:02;13.00;43.10
56729;DHT22;42612;52.232;7.560;2023-04-03T10:32:43;13.10;42.40
56729;DHT22;42612;52.232;7.560;2023-04-03T10:35:39;13.20;41.70
56729;DHT22;42612;52.232;7.560;2023-04-03T10:44:29;13.40;41.70
56729;DHT22;42612;52.232;7.560;2023-04-03T10:58:56;13.80;41.60
56729;DHT22;42612;52.232;7.560;2023-04-03T11:01:32;13.90;43.00
56729;DHT22;42612;52.232;7.560;2023-04-03T11:04:00;14.00;42.10
56729;DHT22;42612;52.232;7.560;2023-04-03T11:06:49;14.00;42.70
56729;DHT22;42612;52.232;7.560;2023-04-03T11:09:26;14.10;41.40
56729;DHT22;42612;52.232;7.560;2023-04-03T11:11:57;14.20;42.80
56729;DHT22;42612;52.232;7.560;2023-04-03T11:14:30;14.20;41.80
56729;DHT22;42612;52.232;7.560;2023-04-03T11:20:10;14.40;41.20
56729;DHT22;42612;52.232;7.560;2023-04-03T11:22:44;14.50;41.00
56729;DHT22;42612;52.232;7.560;2023-04-03T11:25:19;14.60;41.50
56729;DHT22;42612;52.232;7.560;2023-04-03T11:27:55;14.60;40.80
56729;DHT22;42612;52.232;7.560;2023-04-03T11:30:41;14.70;41.50
56729;DHT22;42612;52.232;7.560;2023-04-03T11:34:02;14.60;40.60
56729;DHT22;42612;52.232;7.560;2023-04-03T11:36:41;14.60;40.40
56729;DHT22;42612;52.232;7.560;2023-04-03T11:39:25;14.50;40.10
56729;DHT22;42612;52.232;7.560;2023-04-03T11:41:53;14.40;40.40
56729;DHT22;42612;52.232;7.560;2023-04-03T11:44:35;14.30;40.70
56729;DHT22;42612;52.232;7.560;2023-04-03T11:47:03;14.20;39.10
56729;DHT22;42612;52.232;7.560;2023-04-03T11:49:59;14.20;40.50
56729;DHT22;42612;52.232;7.560;2023-04-03T12:08:53;14.20;40.20
56729;DHT22;42612;52.232;7.560;2023-04-03T12:11:45;14.30;41.40
56729;DHT22;42612;52.232;7.560;2023-04-03T12:14:16;14.40;41.40
56729;DHT22;42612;52.232;7.560;2023-04-03T12:16:45;14.50;40.70
56729;DHT22;42612;52.232;7.560;2023-04-03T12:29:38;14.70;39.90
56729;DHT22;42612;52.232;7.560;2023-04-03T12:35:29;14.70;39.40
56729;DHT22;42612;52.232;7.560;2023-04-03T12:41:37;14.90;40.50
56729;DHT22;42612;52.232;7.560;2023-04-03T12:47:29;15.20;39.90
56729;DHT22;42612;52.232;7.560;2023-04-03T12:49:59;15.40;38.70
56729;DHT22;42612;52.232;7.560;2023-04-03T12:55:00;15.50;40.00
56729;DHT22;42612;52.232;7.560;2023-04-03T12:57:29;15.60;40.30
56729;DHT22;42612;52.232;7.560;2023-04-03T12:59:58;15.70;39.70
56729;DHT22;42612;52.232;7.560;2023-04-03T13:04:53;15.80;38.40
56729;DHT22;42612;52.232;7.560;2023-04-03T13:07:29;15.70;39.00
56729;DHT22;42612;52.232;7.560;2023-04-03T13:10:17;15.70;38.60
56729;DHT22;42612;52.232;7.560;2023-04-03T13:12:54;15.70;37.40
56729;DHT22;42612;52.232;7.560;2023-04-03T13:15:30;15.70;38.40
56729;DHT22;42612;52.232;7.560;2023-04-03T13:18:31;15.70;38.50
56729;DHT22;42612;52.232;7.560;2023-04-03T13:21:02;15.80;38.10
56729;DHT22;42612;52.232;7.560;2023-04-03T13:23:40;15.80;39.10
56729;DHT22;42612;52.232;7.560;2023-04-03T13:26:10;15.80;38.30
56729;DHT22;42612;52.232;7.560;2023-04-03T13:28:37;15.80;38.40
56729;DHT22;42612;52.232;7.560;2023-04-03T13:31:19;15.80;38.50
56729;DHT22;42612;52.232;7.560;2023-04-03T13:34:04;15.70;37.40
56729;DHT22;42612;52.232;7.560;2023-04-03T13:36:33;15.70;38.40
56729;DHT22;42612;52.232;7.560;2023-04-03T13:41:46;15.60;38.90
56729;DHT22;42612;52.232;7.560;2023-04-03T13:46:50;15.70;37.90
56729;DHT22;42612;52.232;7.560;2023-04-03T13:49:37;15.80;38.40
56729;DHT22;42612;52.232;7.560;2023-04-03T13:55:30;16.00;37.10
56729;DHT22;42612;52.232;7.560;2023-04-03T14:00:54;16.30;37.50
56729;DHT22;42612;52.232;7.560;2023-04-03T14:03:45;16.40;37.00
56729;DHT22;42612;52.232;7.560;2023-04-03T14:06:15;16.60;38.60
56729;DHT22;42612;52.232;7.560;2023-04-03T14:08:42;16.70;39.10
56729;DHT22;42612;52.232;7.560;2023-04-03T14:11:14;16.70;38.80
56729;DHT22;42612;52.232;7.560;2023-04-03T14:13:44;16.70;38.10
56729;DHT22;42612;52.232;7.560;2023-04-03T14:16:23;16.60;38.10
56729;DHT22;42612;52.232;7.560;2023-04-03T14:18:51;16.60;37.70
56729;DHT22;42612;52.232;7.560;2023-04-03T14:21:19;16.50;38.50
56729;DHT22;42612;52.232;7.560;2023-04-03T14:23:45;16.30;38.10
56729;DHT22;42612;52.232;7.560;2023-04-03T14:26:17;16.20;37.90
56729;DHT22;42612;52.232;7.560;2023-04-03T14:28:47;16.10;37.90
56729;DHT22;42612;52.232;7.560;2023-04-03T14:31:15;16.00;37.80
56729;DHT22;42612;52.232;7.560;2023-04-03T14:33:41;16.00;37.80
56729;DHT22;42612;52.232;7.560;2023-04-03T14:36:20;16.00;37.30
56729;DHT22;42612;52.232;7.560;2023-04-03T14:38:49;15.90;37.50
56729;DHT22;42612;52.232;7.560;2023-04-03T14:41:17;15.90;38.50
56729;DHT22;42612;52.232;7.560;2023-04-03T14:43:46;15.90;38.40
56729;DHT22;42612;52.232;7.560;2023-04-03T14:46:18;16.00;38.40
56729;DHT22;42612;52.232;7.560;2023-04-03T14:48:48;16.10;38.00
56729;DHT22;42612;52.232;7.560;2023-04-03T14:51:15;16.20;38.20
56729;DHT22;42612;52.232;7.560;2023-04-03T14:53:42;16.30;37.50
56729;DHT22;42612;52.232;7.560;2023-04-03T14:56:19;16.40;37.30
56729;DHT22;42612;52.232;7.560;2023-04-03T14:58:47;16.50;36.40
56729;DHT22;42612;52.232;7.560;2023-04-03T15:01:16;16.50;37.30
56729;DHT22;42612;52.232;7.560;2023-04-03T15:03:42;16.60;37.30
56729;DHT22;42612;52.232;7.560;2023-04-03T15:06:13;16.60;37.20
56729;DHT22;42612;52.232;7.560;2023-04-03T15:08:40;16.60;36.30
56729;DHT22;42612;52.232;7.560;2023-04-03T15:11:07;16.60;37.50
56729;DHT22;42612;52.232;7.560;2023-04-03T15:13:35;16.60;37.60
56729;DHT22;42612;52.232;7.560;2023-04-03T15:16:01;16.60;36.70
56729;DHT22;42612;52.232;7.560;2023-04-03T15:18:32;16.50;36.40
56729;DHT22;42612;52.232;7.560;2023-04-03T15:21:02;16.40;36.70
56729;DHT22;42612;52.232;7.560;2023-04-03T15:23:28;16.40;36.80
56729;DHT22;42612;52.232;7.560;2023-04-03T15:25:55;16.40;37.10
56729;DHT22;42612;52.232;7.560;2023-04-03T15:28:35;16.50;37.00
56729;DHT22;42612;52.232;7.560;2023-04-03T15:31:03;16.50;36.20
56729;DHT22;42612;52.232;7.560;2023-04-03T15:33:31;16.60;36.70
56729;DHT22;42612;52.232;7.560;2023-04-03T15:35:57;16.60;36.70
56729;DHT22;42612;52.232;7.560;2023-04-03T15:38:23;16.60;36.70
56729;DHT22;42612;52.232;7.560;2023-04-03T15:40:48;16.70;36.60
56729;DHT22;42612;52.232;7.560;2023-04-03T15:43:15;16.80;36.60
56729;DHT22;42612;52.232;7.560;2023-04-03T15:45:41;16.90;37.10
56729;DHT22;42612;52.232;7.560;2023-04-03T15:48:08;16.90;36.80
56729;DHT22;42612;52.232;7.560;2023-04-03T15:50:35;17.00;36.30
56729;DHT22;42612;52.232;7.560;2023-04-03T15:53:01;17.10;36.30
56729;DHT22;42612;52.232;7.560;2023-04-03T15:55:30;17.00;36.20
56729;DHT22;42612;52.232;7.560;2023-04-03T15:57:58;17.00;36.50
56729;DHT22;42612;52.232;7.560;2023-04-03T16:00:25;17.00;35.90
56729;DHT22;42612;52.232;7.560;2023-04-03T16:02:55;16.90;36.00
56729;DHT22;42612;52.232;7.560;2023-04-03T16:05:23;16.90;35.60
56729;DHT22;42612;52.232;7.560;2023-04-03T16:07:49;16.80;35.70
56729;DHT22;42612;52.232;7.560;2023-04-03T16:10:18;16.80;35.70
56729;DHT22;42612;52.232;7.560;2023-04-03T16:12:44;16.80;35.90
56729;DHT22;42612;52.232;7.560;2023-04-03T16:15:11;16.80;36.30
56729;DHT22;42612;52.232;7.560;2023-04-03T16:17:37;16.80;36.10
56729;DHT22;42612;52.232;7.560;2023-04-03T16:20:06;16.80;35.90
56729;DHT22;42612;52.232;7.560;2023-04-03T16:22:33;16.80;36.10
56729;DHT22;42612;52.232;7.560;2023-04-03T16:24:59;16.90;35.90
56729;DHT22;42612;52.232;7.560;2023-04-03T16:27:25;16.90;36.10
56729;DHT22;42612;52.232;7.560;2023-04-03T16:29:56;16.90;35.30
56729;DHT22;42612;52.232;7.560;2023-04-03T16:32:23;16.90;35.40
56729;DHT22;42612;52.232;7.560;2023-04-03T16:34:49;16.90;35.30
56729;DHT22;42612;52.232;7.560;2023-04-03T16:37:16;16.90;35.60
56729;DHT22;42612;52.232;7.560;2023-04-03T16:39:42;16.80;35.30
56729;DHT22;42612;52.232;7.560;2023-04-03T16:42:07;16.80;35.50
56729;DHT22;42612;52.232;7.560;2023-04-03T16:44:35;16.70;36.10
56729;DHT22;42612;52.232;7.560;2023-04-03T16:47:01;16.70;36.30
56729;DHT22;42612;52.232;7.560;2023-04-03T16:49:28;16.70;36.10
56729;DHT22;42612;52.232;7.560;2023-04-03T16:52:13;16.70;36.10
56729;DHT22;42612;52.232;7.560;2023-04-03T16:54:39;16.70;35.80
56729;DHT22;42612;52.232;7.560;2023-04-03T16:57:05;16.70;35.70
56729;DHT22;42612;52.232;7.560;2023-04-03T16:59:31;16.70;35.40
56729;DHT22;42612;52.232;7.560;2023-04-03T17:01:57;16.70;35.80
56729;DHT22;42612;52.232;7.560;2023-04-03T17:04:23;16.70;35.60
56729;DHT22;42612;52.232;7.560;2023-04-03T17:06:49;16.70;35.60
56729;DHT22;42612;52.232;7.560;2023-04-03T17:09:17;16.70;35.30
56729;DHT22;42612;52.232;7.560;2023-04-03T17:11:42;16.70;35.30
56729;DHT22;42612;52.232;7.560;2023-04-03T17:14:08;16.60;35.40
56729;DHT22;42612;52.232;7.560;2023-04-03T17:16:35;16.60;35.30
56729;DHT22;42612;52.232;7.560;2023-04-03T17:19:21;16.60;35.20
56729;DHT22;42612;52.232;7.560;2023-04-03T17:21:48;16.60;35.60
56729;DHT22;42612;52.232;7.560;2023-04-03T17:24:14;16.50;35.40
56729;DHT22;42612;52.232;7.560;2023-04-03T17:26:41;16.50;35.30
56729;DHT22;42612;52.232;7.560;2023-04-03T17:29:07;16.50;35.80
56729;DHT22;42612;52.232;7.560;2023-04-03T17:31:33;16.50;35.80
56729;DHT22;42612;52.232;7.560;2023-04-03T17:33:59;16.40;35.60
56729;DHT22;42612;52.232;7.560;2023-04-03T17:36:30;16.40;36.20